Olsburg, Kansas
Current Conditions -  °F | °C
As of 11:52 PM on Sunday 19 Oct 2014 (Local Time) from KMHK Reporting Station
Clear Clear  
Wind Chill: 49°   Ceiling: Unl
Heat Index: 49°   Visibility: 10mi
Dew Point: 48°   Wind: 0mph
Humidity: 97%   Direction: NA
Pressure: 30.01"   Gusts: NA
Location:  39.43°N, 96.62°W
Report Text: KMHK 200452Z AUTO 00000KT 10SM CLR 09/09 A3001 RMK AO2 SLP161 T00940089 TSNO
Loading
Personal Weather Stations






























Interactive Weather Map
Tropical Storm Tracking
New forecast layout! Learn more

10-Day Weather Forecast

Advertisements
Track Severe Weather on mobile